createdAt,value
2024-02-13T00:00:12.746Z,6.60
2024-02-13T00:00:46.392Z,6.60
2024-02-13T00:01:19.065Z,6.70
2024-02-13T00:01:52.486Z,6.60
2024-02-13T00:02:24.533Z,6.60
2024-02-13T00:02:56.874Z,6.60
2024-02-13T00:03:29.813Z,6.60
2024-02-13T00:04:02.773Z,6.60
2024-02-13T00:04:36.225Z,6.60
2024-02-13T00:05:09.845Z,6.60
2024-02-13T00:05:42.339Z,6.60
2024-02-13T00:06:15.290Z,6.60
2024-02-13T00:06:47.797Z,6.60
2024-02-13T00:07:19.864Z,6.60
2024-02-13T00:07:52.903Z,6.60
2024-02-13T00:09:02.388Z,6.70
2024-02-13T00:09:34.542Z,6.70
2024-02-13T00:10:11.133Z,6.70
2024-02-13T00:10:43.314Z,6.70
2024-02-13T00:11:16.233Z,6.70
2024-02-13T00:11:49.389Z,6.80
2024-02-13T00:12:21.446Z,6.80
2024-02-13T00:12:53.433Z,6.70
2024-02-13T00:13:25.482Z,6.80
2024-02-13T00:13:58.537Z,7.00
2024-02-13T00:14:30.601Z,6.80
2024-02-13T00:15:02.787Z,6.80
2024-02-13T00:15:38.358Z,6.80
2024-02-13T00:16:11.514Z,6.80
2024-02-13T00:16:45.249Z,6.80
2024-02-13T00:17:17.281Z,6.80
2024-02-13T00:17:52.368Z,6.70
2024-02-13T00:18:24.581Z,6.70
2024-02-13T00:19:02.421Z,6.70
2024-02-13T00:19:35.904Z,6.70
2024-02-13T00:20:10.322Z,6.70
2024-02-13T00:20:43.223Z,6.70
2024-02-13T00:21:15.502Z,6.70
2024-02-13T00:21:49.265Z,6.70
2024-02-13T00:22:22.302Z,6.70
2024-02-13T00:22:54.346Z,6.70
2024-02-13T00:23:26.458Z,6.70
2024-02-13T00:23:58.817Z,6.60
2024-02-13T00:24:34.872Z,6.60
2024-02-13T00:25:09.098Z,6.60
2024-02-13T00:25:41.069Z,6.60
2024-02-13T00:26:13.078Z,6.60
2024-02-13T00:26:47.756Z,6.60
2024-02-13T00:27:20.338Z,6.60
2024-02-13T00:27:52.358Z,6.60
2024-02-13T00:28:24.334Z,6.60
2024-02-13T00:28:57.508Z,6.60
2024-02-13T00:29:29.629Z,6.60
2024-02-13T00:30:03.657Z,6.60
2024-02-13T00:30:36.126Z,6.60
2024-02-13T00:31:09.838Z,6.60
2024-02-13T00:31:41.950Z,6.60
2024-02-13T00:32:14.215Z,6.60
2024-02-13T00:32:47.223Z,6.60
2024-02-13T00:33:20.298Z,6.60
2024-02-13T00:33:53.226Z,6.50
2024-02-13T00:34:25.319Z,6.50
2024-02-13T00:35:00.289Z,6.50
2024-02-13T00:35:32.294Z,6.50
2024-02-13T00:36:04.906Z,6.60
2024-02-13T00:36:36.902Z,6.60
2024-02-13T00:37:11.098Z,6.60
2024-02-13T00:37:43.115Z,6.50
2024-02-13T00:38:16.030Z,6.60
2024-02-13T00:38:48.040Z,6.60
2024-02-13T00:39:21.043Z,6.60
2024-02-13T00:39:54.202Z,6.60
2024-02-13T00:40:26.300Z,6.60
2024-02-13T00:40:58.275Z,6.60
2024-02-13T00:41:31.338Z,6.60
2024-02-13T00:42:03.881Z,6.60
2024-02-13T00:42:36.999Z,6.60
2024-02-13T00:43:09.005Z,6.60
2024-02-13T00:43:42.053Z,6.60
2024-02-13T00:44:14.378Z,6.60
2024-02-13T00:44:46.530Z,6.60
2024-02-13T00:45:19.600Z,6.60
2024-02-13T00:45:52.236Z,6.50
2024-02-13T00:46:24.221Z,6.50
2024-02-13T00:46:58.297Z,6.50
2024-02-13T00:47:31.435Z,6.50
2024-02-13T00:48:04.019Z,6.50
2024-02-13T00:48:36.121Z,6.50
2024-02-13T00:49:08.128Z,6.50
2024-02-13T00:49:41.132Z,6.50
2024-02-13T00:50:15.703Z,6.50
2024-02-13T00:50:49.379Z,6.70
2024-02-13T00:51:21.810Z,6.50
2024-02-13T00:51:56.097Z,6.50
2024-02-13T00:52:29.286Z,6.50
2024-02-13T00:53:01.935Z,6.50
2024-02-13T00:53:33.957Z,6.50
2024-02-13T00:54:07.292Z,6.50
2024-02-13T00:54:39.297Z,6.50
2024-02-13T00:55:11.431Z,6.50
2024-02-13T00:55:43.934Z,6.40
2024-02-13T00:56:16.921Z,6.40
2024-02-13T00:56:48.905Z,6.40
2024-02-13T00:57:20.864Z,6.40
2024-02-13T00:57:53.799Z,6.40
2024-02-13T00:58:25.729Z,6.40
2024-02-13T00:59:03.828Z,6.30
2024-02-13T00:59:35.950Z,6.40
2024-02-13T01:00:11.509Z,6.40
2024-02-13T01:00:43.916Z,6.40
2024-02-13T01:01:16.152Z,6.40
2024-02-13T01:01:48.201Z,6.40
2024-02-13T01:02:21.322Z,6.50
2024-02-13T01:02:53.490Z,6.50
2024-02-13T01:03:26.174Z,6.50
2024-02-13T01:03:58.234Z,6.50
2024-02-13T01:04:31.688Z,6.50
2024-02-13T01:05:04.172Z,6.60
2024-02-13T01:05:41.910Z,6.50
2024-02-13T01:06:14.584Z,6.50
2024-02-13T01:06:47.539Z,6.50
2024-02-13T01:07:19.693Z,6.50
2024-02-13T01:07:52.781Z,6.50
2024-02-13T01:08:25.223Z,6.50
2024-02-13T01:08:58.450Z,6.50
2024-02-13T01:09:30.991Z,6.50
2024-02-13T01:10:03.357Z,6.50
2024-02-13T01:10:36.325Z,6.40
2024-02-13T01:11:08.925Z,6.50
2024-02-13T01:11:41.017Z,6.40
2024-02-13T01:12:14.040Z,6.50
2024-02-13T01:12:47.268Z,6.50
2024-02-13T01:13:19.387Z,6.50
2024-02-13T01:13:52.336Z,6.50
2024-02-13T01:14:25.326Z,6.50
2024-02-13T01:14:57.351Z,6.40
2024-02-13T01:15:29.575Z,6.40
2024-02-13T01:16:05.021Z,6.40
2024-02-13T01:16:39.389Z,6.50
2024-02-13T01:17:11.618Z,6.40
2024-02-13T01:17:43.878Z,6.40
2024-02-13T01:18:16.998Z,6.50
2024-02-13T01:18:52.628Z,6.40
2024-02-13T01:19:24.797Z,6.40
2024-02-13T01:19:58.368Z,6.40
2024-02-13T01:20:30.376Z,6.40
2024-02-13T01:21:05.244Z,6.40
2024-02-13T01:21:37.282Z,6.40
2024-02-13T01:22:12.520Z,6.40
2024-02-13T01:22:44.542Z,6.40
2024-02-13T01:23:16.568Z,6.40
2024-02-13T01:23:49.612Z,6.40
2024-02-13T01:24:21.687Z,6.40
2024-02-13T01:24:53.764Z,6.40
2024-02-13T01:25:26.280Z,6.40
2024-02-13T01:26:00.341Z,6.40
2024-02-13T01:26:32.388Z,6.40
2024-02-13T01:27:05.191Z,6.50
2024-02-13T01:27:38.662Z,6.40
2024-02-13T01:28:11.645Z,6.40
2024-02-13T01:28:43.620Z,6.50
2024-02-13T01:29:15.986Z,6.50
2024-02-13T01:29:49.107Z,6.50
2024-02-13T01:30:22.259Z,6.40
2024-02-13T01:30:54.234Z,6.40
2024-02-13T01:31:26.193Z,6.40
2024-02-13T01:31:58.178Z,6.40
2024-02-13T01:32:32.853Z,6.40
2024-02-13T01:33:05.633Z,6.40
2024-02-13T01:33:38.071Z,6.50
2024-02-13T01:34:11.253Z,6.40
2024-02-13T01:34:43.505Z,6.40
2024-02-13T01:35:17.463Z,6.50
2024-02-13T01:35:51.050Z,6.50
2024-02-13T01:36:25.545Z,6.50
2024-02-13T01:36:59.014Z,6.50
2024-02-13T01:37:31.058Z,6.50
2024-02-13T01:38:06.080Z,6.50
2024-02-13T01:38:38.517Z,6.60
2024-02-13T01:39:13.041Z,6.60
2024-02-13T01:39:45.063Z,6.60
2024-02-13T01:40:18.374Z,6.60
2024-02-13T01:40:50.602Z,6.60
2024-02-13T01:41:23.605Z,6.60
2024-02-13T01:41:58.114Z,6.60
2024-02-13T01:42:30.142Z,6.50
2024-02-13T01:43:03.546Z,6.50
2024-02-13T01:43:35.543Z,6.50
2024-02-13T01:44:07.613Z,6.50
2024-02-13T01:44:40.022Z,6.50
2024-02-13T01:45:14.924Z,6.50
2024-02-13T01:45:49.278Z,6.50
2024-02-13T01:46:21.854Z,6.50
2024-02-13T01:46:54.966Z,6.50
2024-02-13T01:47:27.152Z,6.50
2024-02-13T01:48:02.486Z,6.50
2024-02-13T01:48:37.820Z,6.50
2024-02-13T01:49:11.874Z,6.50
2024-02-13T01:49:45.126Z,6.50
2024-02-13T01:50:19.679Z,6.50
2024-02-13T01:50:52.086Z,6.50
2024-02-13T01:51:29.551Z,6.50
2024-02-13T01:52:03.557Z,6.50
2024-02-13T01:52:36.985Z,6.50
2024-02-13T01:53:08.984Z,6.50
2024-02-13T01:53:42.715Z,6.40
2024-02-13T01:54:15.212Z,6.40
2024-02-13T01:54:47.342Z,6.40
2024-02-13T01:55:24.998Z,6.40
2024-02-13T01:55:59.004Z,6.40
2024-02-13T01:56:34.705Z,6.40
2024-02-13T01:57:07.888Z,6.40
2024-02-13T01:57:41.790Z,6.40
2024-02-13T01:58:16.329Z,6.40
2024-02-13T01:58:48.333Z,6.40
2024-02-13T01:59:21.905Z,6.40
2024-02-13T01:59:54.945Z,6.40
2024-02-13T02:00:29.101Z,6.40
2024-02-13T02:01:02.424Z,6.40
2024-02-13T02:01:37.145Z,6.40
2024-02-13T02:02:09.789Z,6.40
2024-02-13T02:02:43.729Z,6.40
2024-02-13T02:03:18.825Z,6.40
2024-02-13T02:03:52.750Z,6.40
2024-02-13T02:04:27.530Z,6.40
2024-02-13T02:05:01.059Z,6.40
2024-02-13T02:05:33.065Z,6.40
2024-02-13T02:06:06.595Z,6.40
2024-02-13T02:06:41.439Z,6.40
2024-02-13T02:07:13.836Z,6.40
2024-02-13T02:07:46.101Z,6.50
2024-02-13T02:08:20.887Z,6.50
2024-02-13T02:08:53.944Z,6.50
2024-02-13T02:09:25.959Z,6.50
2024-02-13T02:09:59.214Z,6.50
2024-02-13T02:10:32.193Z,6.50
2024-02-13T02:11:04.882Z,6.50
2024-02-13T02:11:36.931Z,6.50
2024-02-13T02:12:10.849Z,6.50
2024-02-13T02:12:42.894Z,6.50
2024-02-13T02:13:15.904Z,6.50
2024-02-13T02:13:48.307Z,6.50
2024-02-13T02:14:23.322Z,6.50
2024-02-13T02:14:55.438Z,6.50
2024-02-13T02:15:29.289Z,6.50
2024-02-13T02:16:02.313Z,6.50
2024-02-13T02:16:34.287Z,6.50
2024-02-13T02:17:09.730Z,6.50
2024-02-13T02:17:42.901Z,6.50
2024-02-13T02:18:15.043Z,6.50
2024-02-13T02:18:47.271Z,6.50
2024-02-13T02:19:20.410Z,6.50
2024-02-13T02:19:52.456Z,6.50
2024-02-13T02:20:24.585Z,6.50
2024-02-13T02:20:57.777Z,6.50
2024-02-13T02:21:30.996Z,6.50
2024-02-13T02:22:04.652Z,6.50
2024-02-13T02:22:36.596Z,6.60
2024-02-13T02:23:08.612Z,6.60
2024-02-13T02:23:41.982Z,6.60
2024-02-13T02:24:13.962Z,6.50
2024-02-13T02:24:45.917Z,6.50
2024-02-13T02:25:20.044Z,6.50
2024-02-13T02:25:53.038Z,6.50
2024-02-13T02:26:26.240Z,6.50
2024-02-13T02:26:58.348Z,6.50
2024-02-13T02:27:30.395Z,6.50
2024-02-13T02:28:02.337Z,6.60
2024-02-13T02:28:35.632Z,6.60
2024-02-13T02:29:07.660Z,6.60
2024-02-13T02:29:39.989Z,6.60
2024-02-13T02:30:12.385Z,6.60
2024-02-13T02:30:46.191Z,6.60
2024-02-13T02:31:18.198Z,6.60
2024-02-13T02:31:50.673Z,6.60
2024-02-13T02:32:24.836Z,6.60
2024-02-13T02:32:57.151Z,6.60
2024-02-13T02:33:29.780Z,6.60
2024-02-13T02:34:03.107Z,6.60
2024-02-13T02:34:36.673Z,6.60
2024-02-13T02:35:09.234Z,6.70
2024-02-13T02:35:42.517Z,6.60
2024-02-13T02:36:15.497Z,6.60
2024-02-13T02:36:51.520Z,6.70
2024-02-13T02:37:23.838Z,6.70
2024-02-13T02:37:56.796Z,6.80
2024-02-13T02:38:28.776Z,6.70
2024-02-13T02:39:00.887Z,6.60
2024-02-13T02:39:32.965Z,6.70
2024-02-13T02:40:07.047Z,6.60
2024-02-13T02:40:40.504Z,6.70
2024-02-13T02:41:12.481Z,6.70
2024-02-13T02:41:45.596Z,6.70
2024-02-13T02:42:17.662Z,6.70
2024-02-13T02:42:52.753Z,6.70
2024-02-13T02:43:24.913Z,6.70
2024-02-13T02:43:57.926Z,6.70
2024-02-13T02:44:29.888Z,6.80
2024-02-13T02:45:01.850Z,6.70
2024-02-13T02:45:34.093Z,6.80
2024-02-13T02:46:07.237Z,6.70
2024-02-13T02:46:39.672Z,6.80
2024-02-13T02:47:12.364Z,6.70
2024-02-13T02:47:44.520Z,6.70
2024-02-13T02:48:19.640Z,6.70
2024-02-13T02:48:51.978Z,6.80
2024-02-13T02:49:24.071Z,6.80
2024-02-13T02:49:56.148Z,6.80
2024-02-13T02:50:29.146Z,6.80
2024-02-13T02:51:01.282Z,6.80
2024-02-13T02:51:33.579Z,6.80
2024-02-13T02:52:08.586Z,6.80
2024-02-13T02:52:42.127Z,6.80
2024-02-13T02:53:18.298Z,6.80
2024-02-13T02:53:52.105Z,6.80
2024-02-13T02:54:26.285Z,6.80
2024-02-13T02:54:58.349Z,6.70
2024-02-13T02:55:30.394Z,6.70
2024-02-13T02:56:04.473Z,6.70
2024-02-13T02:56:38.695Z,6.70
2024-02-13T02:57:12.279Z,6.70
2024-02-13T02:57:44.220Z,6.70
2024-02-13T02:58:16.294Z,6.70
2024-02-13T02:58:50.723Z,6.70
2024-02-13T02:59:24.797Z,6.70
2024-02-13T02:59:56.799Z,6.70
2024-02-13T03:00:28.774Z,6.70
2024-02-13T03:01:03.141Z,6.70
2024-02-13T03:01:35.537Z,6.70
2024-02-13T03:02:08.703Z,6.70
2024-02-13T03:02:42.953Z,6.70
2024-02-13T03:03:15.048Z,6.70
2024-02-13T03:03:47.245Z,6.70
2024-02-13T03:04:19.233Z,6.70
2024-02-13T03:04:52.178Z,6.70
2024-02-13T03:05:24.242Z,6.70
2024-02-13T03:05:56.413Z,6.70
2024-02-13T03:06:30.391Z,6.70
2024-02-13T03:07:04.584Z,6.70
2024-02-13T03:07:36.726Z,6.70
2024-02-13T03:08:09.710Z,6.60
2024-02-13T03:08:42.787Z,6.70
2024-02-13T03:09:14.869Z,6.70
2024-02-13T03:09:46.836Z,6.70
2024-02-13T03:10:19.298Z,6.70
2024-02-13T03:10:52.272Z,6.70
2024-02-13T03:11:25.715Z,6.70
2024-02-13T03:11:57.781Z,6.70
2024-02-13T03:12:30.026Z,6.70
2024-02-13T03:13:03.568Z,6.60
2024-02-13T03:13:35.523Z,6.70
2024-02-13T03:14:07.501Z,6.70
2024-02-13T03:14:39.535Z,6.70
2024-02-13T03:15:13.504Z,6.70
2024-02-13T03:15:46.034Z,6.90
2024-02-13T03:16:18.142Z,6.70
2024-02-13T03:16:51.352Z,6.70
2024-02-13T03:17:23.631Z,6.70
2024-02-13T03:17:56.795Z,6.70
2024-02-13T03:18:29.028Z,6.70
2024-02-13T03:19:01.155Z,6.70
2024-02-13T03:19:34.210Z,6.70
2024-02-13T03:20:08.292Z,6.70
2024-02-13T03:20:40.757Z,6.70
2024-02-13T03:21:13.978Z,6.70
2024-02-13T03:21:45.911Z,6.70
2024-02-13T03:22:18.180Z,6.70
2024-02-13T03:22:51.171Z,6.70
2024-02-13T03:23:23.150Z,6.70
2024-02-13T03:23:55.181Z,6.70
2024-02-13T03:24:27.190Z,6.70
2024-02-13T03:25:03.336Z,6.70
2024-02-13T03:25:37.074Z,6.70
2024-02-13T03:26:09.089Z,6.80
2024-02-13T03:26:43.419Z,6.80
2024-02-13T03:27:16.635Z,6.80
2024-02-13T03:27:48.640Z,6.80
2024-02-13T03:28:21.621Z,6.80
2024-02-13T03:28:53.608Z,6.80
2024-02-13T03:29:25.662Z,6.80
2024-02-13T03:29:57.890Z,6.90
2024-02-13T03:30:29.837Z,6.80
2024-02-13T03:31:02.804Z,6.90
2024-02-13T03:31:35.037Z,6.80
2024-02-13T03:32:07.304Z,6.80
2024-02-13T03:32:41.212Z,6.80
2024-02-13T03:33:13.496Z,6.80
2024-02-13T03:33:46.152Z,6.80
2024-02-13T03:34:18.365Z,6.80
2024-02-13T03:34:51.334Z,6.80
2024-02-13T03:35:23.331Z,6.80
2024-02-13T03:35:55.358Z,6.80
2024-02-13T03:36:28.348Z,6.80
2024-02-13T03:37:00.342Z,6.80
2024-02-13T03:37:32.348Z,6.80
2024-02-13T03:38:05.343Z,6.80
2024-02-13T03:38:38.435Z,6.80
2024-02-13T03:39:10.489Z,6.80
2024-02-13T03:39:43.900Z,6.80
2024-02-13T03:40:17.238Z,6.80
2024-02-13T03:40:50.236Z,6.80
2024-02-13T03:41:22.267Z,6.80
2024-02-13T03:41:55.577Z,6.80
2024-02-13T03:42:27.515Z,6.80
2024-02-13T03:43:01.313Z,6.80
2024-02-13T03:43:33.270Z,6.80
2024-02-13T03:44:08.946Z,6.80
2024-02-13T03:44:41.102Z,6.70
2024-02-13T03:45:14.429Z,6.70
2024-02-13T03:45:46.674Z,6.70
2024-02-13T03:46:18.620Z,6.70
2024-02-13T03:46:51.901Z,6.70
2024-02-13T03:47:24.961Z,6.70
2024-02-13T03:47:57.260Z,6.70
2024-02-13T03:48:29.734Z,6.80
2024-02-13T03:49:01.814Z,6.70
2024-02-13T03:49:34.877Z,6.70
2024-02-13T03:50:08.563Z,6.80
2024-02-13T03:50:40.828Z,6.80
2024-02-13T03:51:12.869Z,6.80
2024-02-13T03:51:45.897Z,6.80
2024-02-13T03:52:19.065Z,6.80
2024-02-13T03:52:51.095Z,6.80
2024-02-13T03:53:23.190Z,6.80
2024-02-13T03:53:56.204Z,6.90
2024-02-13T03:54:28.221Z,6.90
2024-02-13T03:55:00.243Z,6.90
2024-02-13T03:55:33.213Z,6.90
2024-02-13T03:56:07.595Z,6.90
2024-02-13T03:56:41.727Z,6.90
2024-02-13T03:57:15.513Z,7.00
2024-02-13T03:57:48.452Z,6.90
2024-02-13T03:58:20.433Z,7.00
2024-02-13T03:58:52.409Z,7.00
2024-02-13T03:59:24.574Z,7.00
2024-02-13T03:59:57.666Z,7.00
2024-02-13T04:00:29.682Z,7.00
2024-02-13T04:01:01.686Z,7.00
2024-02-13T04:01:33.702Z,7.00
2024-02-13T04:02:09.076Z,7.00
2024-02-13T04:02:41.230Z,7.00
2024-02-13T04:03:13.226Z,7.00
2024-02-13T04:03:46.200Z,7.00
2024-02-13T04:04:18.208Z,7.00
2024-02-13T04:04:50.384Z,7.00
2024-02-13T04:05:22.500Z,7.00
2024-02-13T04:05:57.135Z,7.00
2024-02-13T04:06:29.340Z,7.00
2024-02-13T04:07:01.361Z,7.00
2024-02-13T04:07:34.885Z,6.90
2024-02-13T04:08:07.548Z,6.90
2024-02-13T04:08:40.597Z,6.80
2024-02-13T04:09:13.581Z,6.80
2024-02-13T04:09:45.589Z,6.80
2024-02-13T04:10:17.645Z,6.80
2024-02-13T04:10:50.643Z,6.80
2024-02-13T04:11:22.651Z,6.80
2024-02-13T04:11:54.785Z,6.70
2024-02-13T04:12:28.138Z,6.70
2024-02-13T04:13:01.083Z,6.70
2024-02-13T04:13:33.006Z,6.70
2024-02-13T04:14:04.995Z,6.70
2024-02-13T04:14:38.888Z,6.70
2024-02-13T04:15:13.586Z,6.70
2024-02-13T04:15:45.593Z,6.70
2024-02-13T04:16:17.678Z,6.80
2024-02-13T04:16:49.616Z,6.80
2024-02-13T04:17:22.560Z,6.70
2024-02-13T04:17:54.582Z,6.70
2024-02-13T04:18:26.998Z,6.70
2024-02-13T04:19:00.177Z,6.70
2024-02-13T04:19:33.588Z,6.70
2024-02-13T04:20:06.382Z,6.70
2024-02-13T04:20:39.150Z,6.70
2024-02-13T04:21:17.420Z,6.70
2024-02-13T04:21:50.367Z,6.70
2024-02-13T04:22:22.414Z,6.80
2024-02-13T04:22:54.408Z,6.70
2024-02-13T04:23:28.398Z,6.80
2024-02-13T04:24:00.731Z,6.80
2024-02-13T04:24:32.938Z,6.80
2024-02-13T04:25:06.609Z,6.70
2024-02-13T04:25:39.531Z,6.70
2024-02-13T04:26:21.419Z,6.70
2024-02-13T04:26:57.766Z,6.70
2024-02-13T04:27:31.155Z,6.70
2024-02-13T04:28:04.170Z,6.60
2024-02-13T04:28:36.214Z,6.60
2024-02-13T04:29:08.718Z,6.60
2024-02-13T04:29:42.711Z,6.60
2024-02-13T04:30:16.170Z,6.60
2024-02-13T04:30:48.208Z,6.60
2024-02-13T04:31:20.157Z,6.60
2024-02-13T04:31:52.143Z,6.60
2024-02-13T04:32:25.772Z,6.60
2024-02-13T04:32:58.096Z,6.60
2024-02-13T04:33:30.286Z,6.60
2024-02-13T04:34:03.452Z,6.60
2024-02-13T04:34:36.836Z,6.60
2024-02-13T04:35:10.026Z,6.70
2024-02-13T04:35:42.614Z,6.70
2024-02-13T04:36:14.545Z,6.70
2024-02-13T04:36:48.325Z,6.70
2024-02-13T04:37:20.269Z,6.70
2024-02-13T04:37:52.296Z,6.60
2024-02-13T04:38:24.348Z,6.70
2024-02-13T04:38:58.381Z,6.60
2024-02-13T04:39:31.542Z,6.60
2024-02-13T04:40:03.789Z,6.60
2024-02-13T04:40:35.779Z,6.60
2024-02-13T04:41:08.680Z,6.50
2024-02-13T04:41:43.289Z,6.60
2024-02-13T04:42:16.351Z,6.60
2024-02-13T04:42:49.727Z,6.60
2024-02-13T04:43:23.044Z,6.50
2024-02-13T04:43:55.451Z,6.60
2024-02-13T04:44:27.493Z,6.60
2024-02-13T04:45:00.921Z,6.60
2024-02-13T04:45:33.993Z,6.60
2024-02-13T04:46:05.961Z,6.60
2024-02-13T04:46:37.996Z,6.50
2024-02-13T04:47:09.986Z,6.60
2024-02-13T04:47:43.181Z,6.50
2024-02-13T04:48:15.557Z,6.50
2024-02-13T04:48:47.753Z,6.50
2024-02-13T04:49:20.220Z,6.50
2024-02-13T04:49:53.526Z,6.50
2024-02-13T04:50:25.550Z,6.50
2024-02-13T04:50:58.130Z,6.50
2024-02-13T04:51:30.196Z,6.50
2024-02-13T04:52:03.146Z,6.50
2024-02-13T04:52:35.399Z,6.50
2024-02-13T04:53:08.433Z,6.50
2024-02-13T04:53:40.403Z,6.50
2024-02-13T04:54:13.419Z,6.50
2024-02-13T04:54:45.750Z,6.50
2024-02-13T04:55:17.750Z,6.50
2024-02-13T04:55:49.787Z,6.50
2024-02-13T04:56:22.790Z,6.50
2024-02-13T04:56:56.750Z,6.50
2024-02-13T04:57:28.790Z,6.40
2024-02-13T04:58:03.115Z,6.40
2024-02-13T04:58:37.621Z,6.40
2024-02-13T04:59:16.154Z,6.40
2024-02-13T04:59:51.122Z,6.40
2024-02-13T05:00:25.811Z,6.40
2024-02-13T05:01:05.954Z,6.40
2024-02-13T05:01:40.980Z,6.40
2024-02-13T05:02:13.978Z,6.40
2024-02-13T05:02:48.115Z,6.30
2024-02-13T05:03:28.970Z,6.30
2024-02-13T05:04:19.354Z,6.30
2024-02-13T05:05:09.994Z,6.30
2024-02-13T05:06:00.748Z,6.30
2024-02-13T05:06:51.243Z,6.30
2024-02-13T05:07:24.464Z,6.30
2024-02-13T05:07:56.688Z,6.20
2024-02-13T05:08:30.528Z,6.20
2024-02-13T05:09:02.500Z,6.30
2024-02-13T05:09:34.510Z,6.30
2024-02-13T05:10:08.232Z,6.20
2024-02-13T05:10:40.289Z,6.20
2024-02-13T05:11:13.196Z,6.30
2024-02-13T05:11:45.156Z,6.20
2024-02-13T05:12:18.173Z,6.20
2024-02-13T05:12:50.242Z,6.20
2024-02-13T05:13:23.563Z,6.20
2024-02-13T05:13:59.686Z,6.20
2024-02-13T05:14:32.756Z,6.20
2024-02-13T05:15:06.589Z,6.20
2024-02-13T05:15:39.529Z,6.20
2024-02-13T05:16:11.471Z,6.20
2024-02-13T05:16:44.525Z,6.20
2024-02-13T05:17:16.591Z,6.30
2024-02-13T05:17:50.672Z,6.30
2024-02-13T05:18:22.936Z,6.30
2024-02-13T05:18:55.804Z,6.30
2024-02-13T05:19:28.319Z,6.30
2024-02-13T05:20:01.451Z,6.30
2024-02-13T05:20:33.673Z,6.30
2024-02-13T05:21:06.718Z,6.30
2024-02-13T05:21:38.727Z,6.20
2024-02-13T05:22:11.824Z,6.20
2024-02-13T05:22:43.970Z,6.20
2024-02-13T05:23:16.744Z,6.20
2024-02-13T05:23:50.217Z,6.20
2024-02-13T05:24:23.325Z,6.20
2024-02-13T05:24:55.290Z,6.20
2024-02-13T05:25:27.693Z,6.20
2024-02-13T05:25:59.643Z,6.20
2024-02-13T05:26:32.852Z,6.20
2024-02-13T05:27:09.024Z,6.20
2024-02-13T05:27:40.991Z,6.20
2024-02-13T05:28:12.952Z,6.20
2024-02-13T05:28:47.368Z,6.20
2024-02-13T05:29:19.411Z,6.20
2024-02-13T05:29:51.523Z,6.20
2024-02-13T05:30:24.609Z,6.20
2024-02-13T05:30:56.908Z,6.30
2024-02-13T05:31:28.901Z,6.30
2024-02-13T05:32:00.866Z,6.30
2024-02-13T05:32:35.089Z,6.30
2024-02-13T05:33:07.267Z,6.30
2024-02-13T05:33:40.397Z,6.30
2024-02-13T05:34:13.510Z,6.30
2024-02-13T05:34:45.554Z,6.30
2024-02-13T05:35:17.712Z,6.30
2024-02-13T05:35:49.954Z,6.40
2024-02-13T05:36:22.924Z,6.40
2024-02-13T05:36:59.090Z,6.40
2024-02-13T05:37:33.374Z,6.40
2024-02-13T05:38:06.437Z,6.40
2024-02-13T05:38:44.868Z,6.40
2024-02-13T05:39:17.137Z,6.30
2024-02-13T05:39:51.294Z,6.30
2024-02-13T05:40:24.293Z,6.30
2024-02-13T05:40:56.490Z,6.30
2024-02-13T05:41:28.506Z,6.30
2024-02-13T05:42:01.460Z,6.30
2024-02-13T05:42:33.419Z,6.30
2024-02-13T05:43:08.329Z,6.30
2024-02-13T05:43:42.802Z,6.30
2024-02-13T05:44:16.159Z,6.30
2024-02-13T05:44:48.254Z,6.30
2024-02-13T05:45:21.495Z,6.30
2024-02-13T05:45:53.747Z,6.30
2024-02-13T05:46:25.680Z,6.30
2024-02-13T05:46:58.196Z,6.30
2024-02-13T05:47:36.106Z,6.30
2024-02-13T05:48:10.639Z,6.30
2024-02-13T05:48:44.072Z,6.30
2024-02-13T05:49:17.359Z,6.30
2024-02-13T05:49:49.624Z,6.30
2024-02-13T05:50:21.993Z,6.40
2024-02-13T05:50:54.111Z,6.30
2024-02-13T05:51:27.169Z,6.30
2024-02-13T05:51:59.142Z,6.30
2024-02-13T05:52:31.681Z,6.50
2024-02-13T05:53:04.834Z,6.30
2024-02-13T05:53:37.857Z,6.30
2024-02-13T05:54:11.141Z,6.30
2024-02-13T05:54:43.952Z,6.30
2024-02-13T05:55:17.244Z,6.30
2024-02-13T05:55:49.569Z,6.30
2024-02-13T05:56:27.226Z,6.30
2024-02-13T05:57:00.474Z,6.30
2024-02-13T05:57:33.488Z,6.30
2024-02-13T05:58:06.231Z,6.30
2024-02-13T05:58:38.151Z,6.30
2024-02-13T05:59:10.389Z,6.30
2024-02-13T05:59:44.850Z,6.20
2024-02-13T06:00:17.703Z,6.20
2024-02-13T06:00:49.825Z,6.20
2024-02-13T06:01:23.704Z,6.20
2024-02-13T06:01:55.787Z,6.20
2024-02-13T06:02:28.533Z,6.20
2024-02-13T06:03:02.320Z,6.20
2024-02-13T06:03:34.548Z,6.20
2024-02-13T06:04:07.712Z,6.20
2024-02-13T06:04:39.904Z,6.20
2024-02-13T06:05:11.875Z,6.20
2024-02-13T06:05:45.009Z,6.20
2024-02-13T06:06:17.325Z,6.20
2024-02-13T06:06:49.399Z,6.20
2024-02-13T06:07:21.610Z,6.20
2024-02-13T06:07:54.618Z,6.20
2024-02-13T06:08:27.021Z,6.30
2024-02-13T06:08:59.290Z,6.30
2024-02-13T06:09:31.329Z,6.30
2024-02-13T06:10:03.613Z,6.20
2024-02-13T06:10:37.480Z,6.20
2024-02-13T06:11:09.557Z,6.20
2024-02-13T06:11:41.683Z,6.20
2024-02-13T06:12:14.183Z,6.20
2024-02-13T06:12:47.772Z,6.20
2024-02-13T06:13:19.713Z,6.20
2024-02-13T06:13:51.919Z,6.10
2024-02-13T06:14:23.981Z,6.10
2024-02-13T06:14:58.344Z,6.10
2024-02-13T06:15:30.344Z,6.10
2024-02-13T06:16:02.345Z,6.10
2024-02-13T06:16:35.286Z,6.10
2024-02-13T06:17:07.286Z,6.10
2024-02-13T06:17:39.572Z,6.10
2024-02-13T06:18:11.628Z,6.00
2024-02-13T06:18:44.782Z,6.10
2024-02-13T06:19:16.864Z,6.10
2024-02-13T06:19:48.922Z,6.10
2024-02-13T06:20:21.296Z,6.10
2024-02-13T06:20:54.953Z,6.10
2024-02-13T06:21:27.857Z,6.10
2024-02-13T06:21:59.917Z,6.00
2024-02-13T06:22:33.356Z,6.00
2024-02-13T06:23:06.345Z,6.00
2024-02-13T06:23:38.853Z,6.00
2024-02-13T06:24:10.840Z,6.00
2024-02-13T06:24:42.793Z,6.00
2024-02-13T06:25:16.099Z,6.00
2024-02-13T06:25:48.567Z,6.00
2024-02-13T06:26:20.625Z,6.00
2024-02-13T06:26:55.098Z,6.00
2024-02-13T06:27:29.776Z,6.00
2024-02-13T06:28:01.826Z,6.00
2024-02-13T06:28:33.836Z,6.00
2024-02-13T06:29:07.854Z,6.00
2024-02-13T06:29:40.873Z,6.00
2024-02-13T06:30:15.321Z,6.00
2024-02-13T06:30:47.361Z,6.00
2024-02-13T06:31:19.367Z,6.00
2024-02-13T06:31:55.969Z,6.00
2024-02-13T06:32:28.438Z,6.00
2024-02-13T06:33:01.694Z,6.00
2024-02-13T06:33:34.118Z,6.00
2024-02-13T06:34:07.238Z,6.00
2024-02-13T06:34:40.618Z,6.00
2024-02-13T06:35:12.689Z,6.00
2024-02-13T06:35:44.950Z,6.00
2024-02-13T06:36:18.250Z,6.00
2024-02-13T06:36:50.297Z,6.00
2024-02-13T06:37:22.702Z,6.00
2024-02-13T06:37:54.643Z,6.00
2024-02-13T06:38:27.606Z,6.00
2024-02-13T06:38:59.601Z,5.90
2024-02-13T06:39:31.618Z,6.00
2024-02-13T06:40:04.143Z,6.00
2024-02-13T06:40:37.115Z,6.00
2024-02-13T06:41:11.609Z,6.00
2024-02-13T06:41:44.270Z,6.10
2024-02-13T06:42:16.457Z,6.00
2024-02-13T06:42:49.388Z,6.00
2024-02-13T06:43:21.515Z,6.00
2024-02-13T06:43:53.540Z,6.00
2024-02-13T06:44:25.547Z,6.00
2024-02-13T06:44:58.606Z,6.00
2024-02-13T06:45:32.066Z,6.10
2024-02-13T06:46:04.568Z,6.00
2024-02-13T06:46:37.513Z,6.10
2024-02-13T06:47:09.525Z,6.10
2024-02-13T06:47:41.623Z,6.10
2024-02-13T06:48:13.698Z,6.10
2024-02-13T06:48:47.428Z,6.10
2024-02-13T06:49:19.604Z,6.00
2024-02-13T06:49:51.851Z,6.00
2024-02-13T06:50:24.771Z,6.00
2024-02-13T06:50:57.932Z,6.10
2024-02-13T06:51:30.656Z,6.10
2024-02-13T06:52:02.662Z,6.10
2024-02-13T06:52:34.689Z,6.10
2024-02-13T06:53:08.605Z,6.10
2024-02-13T06:53:41.143Z,6.10
2024-02-13T06:54:13.101Z,6.10
2024-02-13T06:54:50.284Z,6.10
2024-02-13T06:55:23.604Z,6.20
2024-02-13T06:55:55.603Z,6.20
2024-02-13T06:56:28.184Z,6.10
2024-02-13T06:57:00.511Z,6.20
2024-02-13T06:57:35.994Z,6.20
2024-02-13T06:58:08.013Z,6.20
2024-02-13T06:58:40.434Z,6.20
2024-02-13T06:59:12.500Z,6.20
2024-02-13T06:59:45.555Z,6.20
2024-02-13T07:00:18.645Z,6.20
2024-02-13T07:00:52.696Z,6.20
2024-02-13T07:01:25.097Z,6.20
2024-02-13T07:01:58.420Z,6.20
2024-02-13T07:02:30.411Z,6.20
2024-02-13T07:03:03.750Z,6.20
2024-02-13T07:03:35.852Z,6.20
2024-02-13T07:04:08.885Z,6.30
2024-02-13T07:04:41.145Z,6.30
2024-02-13T07:05:14.267Z,6.30
2024-02-13T07:05:47.465Z,6.30
2024-02-13T07:06:32.817Z,6.40
2024-02-13T07:07:25.396Z,6.40
2024-02-13T07:08:05.311Z,6.40
2024-02-13T07:08:37.449Z,6.40
2024-02-13T07:09:10.690Z,6.40
2024-02-13T07:09:47.344Z,6.40
2024-02-13T07:10:20.770Z,6.40
2024-02-13T07:10:53.544Z,6.40
2024-02-13T07:11:26.959Z,6.40
2024-02-13T07:11:58.900Z,6.40
2024-02-13T07:12:30.968Z,6.40
2024-02-13T07:13:03.982Z,6.40
2024-02-13T07:13:35.926Z,6.40
2024-02-13T07:14:07.897Z,6.40
2024-02-13T07:14:39.986Z,6.40
2024-02-13T07:15:13.527Z,6.40
2024-02-13T07:15:45.823Z,6.40
2024-02-13T07:16:19.213Z,6.40
2024-02-13T07:16:51.391Z,6.50
2024-02-13T07:17:24.578Z,6.40
2024-02-13T07:18:00.718Z,6.40
2024-02-13T07:18:34.776Z,6.40
2024-02-13T07:19:08.147Z,6.40
2024-02-13T07:19:42.211Z,6.40
2024-02-13T07:20:14.472Z,6.40
2024-02-13T07:20:47.497Z,6.40
2024-02-13T07:21:20.672Z,6.40